Terminal Aerodrome Forecast
Issued by NWS Nashville, TN

Current Version | Previous Version | Text Only | Print | Product List | Glossary Off
Versions: 1 2 3 4 5 6 7 8 9 10 11 12 13 14 15 16 17

000
FTUS44 KOHX 111738
TAFBNA
TAF
KBNA 111738Z 1118/1218 21009KT P6SM SKC
     FM112000 21013G20KT P6SM BKN250
     FM120500 30011G20KT P6SM BKN100 BKN250
     FM121000 33012G20KT P6SM BKN025 OVC050
     FM121500 32014G20KT P6SM SKC=

USA.gov is the U.S. government's official web portal to all federal, state and local government web resources and services.